Time;durP1;ratioP1;P1;durP2;ratioP2;P2;SDS_P1;SDS_P2;PMS_P1;PMS_P2;Temp;Humidity;BMP_temperature;BMP_pressure;BME280_temperature;BME280_humidity;BME280_pressure;Samples;Min_cycle;Max_cycle;Signal;HPM_P1;HPM_P2
2021/06/25 00:02:01;;;;;;;14.52;10.50;;;17.00;99.90;;;;;;5046903;28;20211;-69
2021/06/25 00:04:28;;;;;;;14.43;10.02;;;17.00;99.90;;;;;;5046158;28;20294;-70
2021/06/25 00:06:55;;;;;;;10.63;9.53;;;17.00;99.90;;;;;;5050426;28;20310;-70
2021/06/25 00:09:23;;;;;;;15.43;10.68;;;17.00;99.90;;;;;;5046599;28;20243;-70
2021/06/25 00:11:50;;;;;;;13.23;10.48;;;16.90;99.90;;;;;;5047329;28;20322;-70
2021/06/25 00:14:20;;;;;;;15.20;11.32;;;16.80;99.90;;;;;;5048491;28;20703;-69
2021/06/25 00:16:47;;;;;;;14.60;11.05;;;16.90;99.90;;;;;;5043801;28;20568;-70
2021/06/25 00:19:14;;;;;;;17.30;10.67;;;16.80;99.90;;;;;;5045153;28;20290;-70
2021/06/25 00:21:41;;;;;;;13.05;10.32;;;16.70;99.90;;;;;;5047648;28;20289;-70
2021/06/25 00:24:08;;;;;;;13.68;10.05;;;16.70;99.90;;;;;;5049447;28;20286;-70
2021/06/25 00:26:37;;;;;;;13.70;11.10;;;16.60;99.90;;;;;;5043241;28;20199;-70
2021/06/25 00:29:04;;;;;;;14.70;11.25;;;16.60;99.90;;;;;;5044061;28;20237;-69
2021/06/25 00:31:31;;;;;;;13.27;10.23;;;16.60;99.90;;;;;;5045534;28;20199;-69
2021/06/25 00:33:57;;;;;;;16.30;11.40;;;16.60;99.90;;;;;;5045315;28;20645;-70
2021/06/25 00:36:24;;;;;;;13.18;9.88;;;16.50;99.90;;;;;;5047884;28;20230;-70
2021/06/25 00:38:51;;;;;;;13.15;10.50;;;16.50;99.90;;;;;;5041755;28;20203;-69
2021/06/25 00:41:18;;;;;;;15.68;11.05;;;16.60;99.90;;;;;;5051656;28;20290;-70
2021/06/25 00:43:46;;;;;;;11.87;9.80;;;16.50;99.90;;;;;;5048075;28;20570;-69
2021/06/25 00:46:13;;;;;;;13.07;9.98;;;16.70;99.90;;;;;;5047216;28;20199;-69
2021/06/25 00:48:40;;;;;;;11.77;10.10;;;16.70;99.90;;;;;;5047545;28;20221;-70
2021/06/25 00:51:07;;;;;;;13.25;9.88;;;16.70;99.90;;;;;;5047174;28;20291;-70
2021/06/25 00:53:34;;;;;;;15.02;10.85;;;16.70;99.90;;;;;;5047749;28;20290;-70
2021/06/25 00:56:01;;;;;;;14.57;11.00;;;16.70;99.90;;;;;;5045078;28;20226;-70
2021/06/25 00:58:28;;;;;;;13.82;11.13;;;16.60;99.90;;;;;;5039985;28;20286;-70
2021/06/25 01:00:57;;;;;;;12.50;10.38;;;16.60;99.90;;;;;;5045894;28;20286;-69
2021/06/25 01:03:23;;;;;;;12.10;10.40;;;16.70;99.90;;;;;;5050770;28;20203;-69
2021/06/25 01:05:50;;;;;;;14.98;10.18;;;16.70;99.90;;;;;;5044607;28;20202;-70
2021/06/25 01:08:17;;;;;;;13.70;10.40;;;16.70;99.90;;;;;;5050811;28;20563;-69
2021/06/25 01:10:44;;;;;;;14.75;10.35;;;16.50;99.90;;;;;;5051060;28;20293;-70
2021/06/25 01:13:12;;;;;;;15.65;11.38;;;16.50;99.90;;;;;;5048721;28;20203;-70
2021/06/25 01:15:39;;;;;;;15.97;11.80;;;16.50;99.90;;;;;;5048167;28;20206;-69
2021/06/25 01:18:07;;;;;;;14.30;11.33;;;16.50;99.90;;;;;;5047969;28;20640;-69
2021/06/25 01:20:36;;;;;;;13.68;10.43;;;16.50;99.90;;;;;;5046425;28;20294;-70
2021/06/25 01:23:05;;;;;;;12.67;10.53;;;16.60;99.90;;;;;;5046312;28;20206;-69
2021/06/25 01:25:34;;;;;;;16.10;10.93;;;16.50;99.90;;;;;;5048999;28;20226;-69
2021/06/25 01:28:04;;;;;;;12.93;10.90;;;16.40;99.90;;;;;;5049636;28;20225;-70
2021/06/25 01:30:33;;;;;;;14.77;10.70;;;16.40;99.90;;;;;;5042810;28;20309;-70
2021/06/25 01:33:01;;;;;;;14.00;10.40;;;16.40;99.90;;;;;;5045461;28;20692;-69
2021/06/25 01:35:28;;;;;;;15.10;10.80;;;16.40;99.90;;;;;;5050759;28;20632;-70
2021/06/25 01:37:55;;;;;;;13.10;10.60;;;16.40;99.90;;;;;;5048222;28;20318;-69
2021/06/25 01:40:24;;;;;;;13.50;10.53;;;16.40;99.90;;;;;;5038058;28;20293;-69
2021/06/25 01:42:52;;;;;;;18.17;11.67;;;16.30;99.90;;;;;;5049201;28;20690;-70
2021/06/25 01:45:21;;;;;;;17.97;12.23;;;16.30;99.90;;;;;;5048421;28;20294;-70
2021/06/25 01:47:49;;;;;;;13.93;10.82;;;16.20;99.90;;;;;;5049345;28;20226;-70
2021/06/25 01:50:17;;;;;;;15.17;11.37;;;16.20;99.90;;;;;;5035503;28;20576;-70
2021/06/25 01:52:45;;;;;;;12.93;11.20;;;16.00;99.90;;;;;;5053253;28;20285;-69
2021/06/25 01:55:13;;;;;;;13.03;10.63;;;16.00;99.90;;;;;;5054373;28;20286;-69
2021/06/25 01:57:42;;;;;;;15.20;10.67;;;16.00;99.90;;;;;;5054198;28;20305;-70
2021/06/25 02:00:11;;;;;;;15.63;11.13;;;15.90;99.90;;;;;;5053710;28;20479;-70
2021/06/25 02:02:38;;;;;;;15.50;11.10;;;15.80;99.90;;;;;;5050283;28;20677;-70
2021/06/25 02:05:07;;;;;;;14.93;10.73;;;15.80;99.90;;;;;;5053742;28;20716;-70
2021/06/25 02:07:34;;;;;;;14.47;11.30;;;15.90;99.90;;;;;;5047615;28;20626;-70
2021/06/25 02:10:01;;;;;;;13.93;11.10;;;15.90;99.90;;;;;;5090665;22;20293;-74
2021/06/25 02:12:28;;;;;;;15.50;11.17;;;15.90;99.90;;;;;;5055902;28;20301;-75
2021/06/25 02:14:57;;;;;;;14.35;10.95;;;16.00;99.90;;;;;;5060832;28;20235;-75
2021/06/25 02:17:24;;;;;;;15.63;11.43;;;15.90;99.90;;;;;;5057771;28;20282;-75
2021/06/25 02:19:51;;;;;;;17.53;11.43;;;15.80;99.90;;;;;;5047331;28;20299;-75
2021/06/25 02:22:18;;;;;;;14.73;11.67;;;15.70;99.90;;;;;;5050816;28;20705;-75
2021/06/25 02:24:45;;;;;;;14.00;11.43;;;15.70;99.90;;;;;;5047338;28;20286;-76
2021/06/25 02:27:12;;;;;;;16.03;11.93;;;15.60;99.90;;;;;;5047683;28;20203;-75
2021/06/25 02:29:38;;;;;;;17.93;12.33;;;15.60;99.90;;;;;;5050457;28;20313;-76
2021/06/25 02:32:08;;;;;;;17.90;11.70;;;15.60;99.90;;;;;;5042307;28;20239;-75
2021/06/25 02:34:34;;;;;;;15.33;11.37;;;15.60;99.90;;;;;;5049515;28;20264;-75
2021/06/25 02:37:01;;;;;;;15.07;11.60;;;15.70;99.90;;;;;;5048296;28;20199;-75
2021/06/25 02:39:28;;;;;;;13.13;11.70;;;15.80;99.90;;;;;;5038399;28;20205;-75
2021/06/25 02:41:55;;;;;;;16.53;12.07;;;15.90;99.90;;;;;;5042614;28;20283;-75
2021/06/25 02:44:22;;;;;;;16.90;12.03;;;15.80;99.90;;;;;;5048682;28;20230;-75
2021/06/25 02:46:50;;;;;;;15.13;12.07;;;15.70;99.90;;;;;;5043968;28;20283;-75
2021/06/25 02:49:18;;;;;;;15.77;12.43;;;15.60;99.90;;;;;;5051267;28;20229;-75
2021/06/25 02:51:45;;;;;;;15.17;12.13;;;15.60;99.90;;;;;;5053150;28;20725;-75
2021/06/25 02:54:12;;;;;;;16.33;12.37;;;15.60;99.90;;;;;;5044731;28;20299;-75
2021/06/25 02:56:39;;;;;;;16.53;11.87;;;15.50;99.90;;;;;;5052712;28;20294;-75
2021/06/25 02:59:06;;;;;;;16.43;12.30;;;15.60;99.90;;;;;;5060213;28;20300;-75
2021/06/25 03:01:33;;;;;;;16.07;12.20;;;15.60;99.90;;;;;;5053791;28;20709;-75
2021/06/25 03:04:00;;;;;;;14.93;11.43;;;15.70;99.90;;;;;;5044708;28;20268;-75
2021/06/25 03:06:28;;;;;;;15.97;11.83;;;15.70;99.90;;;;;;5055547;28;20199;-76
2021/06/25 03:08:55;;;;;;;17.97;12.17;;;15.70;99.90;;;;;;5051987;28;20306;-75
2021/06/25 03:11:22;;;;;;;14.73;11.60;;;15.60;99.90;;;;;;5051857;28;20720;-75
2021/06/25 03:13:49;;;;;;;16.50;12.20;;;15.70;99.90;;;;;;5052779;28;20645;-75
2021/06/25 03:16:16;;;;;;;15.77;12.00;;;15.60;99.90;;;;;;5052080;28;20234;-76
2021/06/25 03:18:43;;;;;;;18.93;12.60;;;15.50;99.90;;;;;;5058515;28;20285;-75
2021/06/25 03:21:10;;;;;;;16.37;12.63;;;15.50;99.90;;;;;;5059045;28;20228;-75
2021/06/25 03:23:38;;;;;;;16.60;11.97;;;15.50;99.90;;;;;;5063712;28;20301;-75
2021/06/25 03:26:05;;;;;;;16.50;12.30;;;15.50;99.90;;;;;;5053610;28;20203;-75
2021/06/25 03:28:32;;;;;;;13.37;11.23;;;15.60;99.90;;;;;;5050569;28;20676;-75
2021/06/25 03:30:59;;;;;;;15.83;12.03;;;15.60;99.90;;;;;;5063929;28;20289;-75
2021/06/25 03:33:26;;;;;;;14.37;11.13;;;15.60;99.90;;;;;;5054313;28;20290;-75
2021/06/25 03:35:53;;;;;;;16.87;12.27;;;15.70;99.90;;;;;;5061402;28;20208;-75
2021/06/25 03:38:20;;;;;;;20.43;12.50;;;15.70;99.90;;;;;;5062218;28;20613;-76
2021/06/25 03:40:48;;;;;;;19.30;12.10;;;15.80;99.90;;;;;;5052596;28;20242;-75
2021/06/25 03:43:15;;;;;;;15.60;11.03;;;15.80;99.90;;;;;;5053940;28;20325;-76
2021/06/25 03:45:42;;;;;;;17.10;11.57;;;15.70;99.90;;;;;;5053048;28;20249;-75
2021/06/25 03:48:09;;;;;;;21.73;11.03;;;15.80;99.90;;;;;;5053918;28;20250;-75
2021/06/25 03:50:37;;;;;;;19.73;10.33;;;15.90;99.90;;;;;;5059548;28;20245;-75
2021/06/25 03:53:04;;;;;;;16.90;9.93;;;16.10;99.90;;;;;;5058029;28;20641;-75
2021/06/25 03:55:31;;;;;;;14.98;10.10;;;16.20;99.90;;;;;;5062253;28;20293;-75
2021/06/25 03:57:59;;;;;;;14.40;10.45;;;16.00;99.90;;;;;;5052592;28;20242;-75
2021/06/25 04:00:27;;;;;;;15.57;10.77;;;16.00;99.90;;;;;;5061656;28;20253;-76
2021/06/25 04:02:54;;;;;;;15.90;10.57;;;16.10;99.90;;;;;;5036473;28;20228;-75
2021/06/25 04:05:21;;;;;;;13.23;10.30;;;16.20;99.90;;;;;;5046812;28;20285;-75
2021/06/25 04:07:48;;;;;;;16.45;11.55;;;16.10;99.90;;;;;;5037697;28;20291;-75
2021/06/25 04:10:15;;;;;;;17.10;10.93;;;16.20;99.90;;;;;;5037223;28;20639;-75
2021/06/25 04:12:42;;;;;;;17.40;11.33;;;16.30;99.90;;;;;;5033141;28;20638;-75
2021/06/25 04:15:12;;;;;;;17.30;11.67;;;16.50;99.90;;;;;;5047295;28;20708;-75
2021/06/25 04:17:39;;;;;;;16.80;11.33;;;16.50;99.90;;;;;;5047626;28;20206;-75
2021/06/25 04:20:07;;;;;;;16.67;12.33;;;16.50;99.90;;;;;;5036827;28;20278;-75
2021/06/25 04:22:35;;;;;;;15.88;11.65;;;16.30;99.90;;;;;;5047571;28;20295;-75
2021/06/25 04:25:02;;;;;;;15.37;11.27;;;16.20;99.90;;;;;;5039908;28;20224;-75
2021/06/25 04:27:28;;;;;;;19.45;12.55;;;16.20;99.90;;;;;;5055070;28;20286;-76
2021/06/25 04:29:55;;;;;;;17.63;11.60;;;16.10;99.90;;;;;;5061161;28;20305;-75
2021/06/25 04:32:24;;;;;;;15.60;11.37;;;16.20;99.90;;;;;;5041136;28;20199;-75
2021/06/25 04:34:50;;;;;;;15.53;11.07;;;16.30;99.90;;;;;;5044247;28;20308;-76
2021/06/25 04:37:18;;;;;;;14.50;11.63;;;16.40;99.90;;;;;;5055576;28;20214;-76
2021/06/25 04:39:45;;;;;;;15.38;11.13;;;16.50;99.90;;;;;;5041637;28;20566;-75
2021/06/25 04:42:12;;;;;;;29.43;22.30;;;16.60;99.90;;;;;;5052168;28;20721;-76
2021/06/25 04:44:40;;;;;;;17.67;11.93;;;16.80;99.90;;;;;;5051648;28;20574;-75
2021/06/25 04:47:07;;;;;;;16.27;11.00;;;16.70;99.90;;;;;;5057109;28;20215;-75
2021/06/25 04:49:38;;;;;;;19.33;11.60;;;16.80;99.90;;;;;;5052318;28;20310;-76
2021/06/25 04:52:06;;;;;;;15.55;11.27;;;16.90;99.90;;;;;;5038573;28;20294;-75
2021/06/25 04:54:33;;;;;;;20.70;11.38;;;17.10;99.90;;;;;;5057822;28;20713;-75
2021/06/25 04:57:00;;;;;;;20.90;14.13;;;17.40;99.90;;;;;;5052517;28;20278;-76
2021/06/25 04:59:27;;;;;;;19.02;11.95;;;17.40;99.90;;;;;;5056059;28;20285;-72
2021/06/25 05:01:54;;;;;;;17.77;11.75;;;17.40;99.90;;;;;;5053383;28;20210;-73
2021/06/25 05:04:21;;;;;;;18.30;11.23;;;17.50;99.90;;;;;;5054884;28;20649;-73
2021/06/25 05:06:50;;;;;;;17.10;11.15;;;17.60;99.90;;;;;;5057267;28;20203;-73
2021/06/25 05:09:17;;;;;;;18.17;11.20;;;17.70;99.90;;;;;;5051322;28;20650;-73
2021/06/25 05:11:44;;;;;;;15.10;10.70;;;17.70;99.90;;;;;;5055148;28;20242;-74
2021/06/25 05:14:11;;;;;;;14.50;11.80;;;17.80;99.90;;;;;;5062516;28;20685;-73
2021/06/25 05:16:37;;;;;;;15.82;10.75;;;17.60;99.90;;;;;;5052073;28;20205;-73
2021/06/25 05:19:04;;;;;;;12.77;10.20;;;17.60;99.90;;;;;;5059640;28;20285;-73
2021/06/25 05:21:31;;;;;;;12.68;9.90;;;17.70;99.90;;;;;;5055676;28;20286;-73
2021/06/25 05:24:00;;;;;;;13.25;10.52;;;17.80;99.90;;;;;;5060060;28;20627;-73
2021/06/25 05:26:27;;;;;;;14.38;9.93;;;17.80;99.90;;;;;;5052629;28;20234;-73
2021/06/25 05:28:54;;;;;;;14.98;10.88;;;17.80;99.90;;;;;;5064896;28;20695;-73
2021/06/25 05:31:21;;;;;;;16.75;11.10;;;17.80;99.90;;;;;;5060683;28;20289;-74
2021/06/25 05:33:48;;;;;;;14.30;10.88;;;17.90;99.90;;;;;;5064210;28;20216;-73
2021/06/25 05:36:15;;;;;;;17.35;11.27;;;18.10;99.90;;;;;;5056983;28;20231;-73
2021/06/25 05:38:42;;;;;;;19.65;11.63;;;18.00;99.90;;;;;;5055591;28;20294;-73
2021/06/25 05:41:10;;;;;;;15.60;11.20;;;18.10;99.90;;;;;;5060245;28;20267;-73
2021/06/25 05:43:37;;;;;;;15.73;11.50;;;17.90;99.90;;;;;;5055518;28;20305;-73
2021/06/25 05:46:04;;;;;;;17.35;10.68;;;17.70;99.90;;;;;;5057248;28;20299;-74
2021/06/25 05:48:30;;;;;;;14.05;11.10;;;17.70;99.90;;;;;;5051900;28;20286;-73
2021/06/25 05:50:57;;;;;;;18.40;11.75;;;17.70;99.90;;;;;;5055783;28;20293;-73
2021/06/25 05:53:25;;;;;;;18.60;13.98;;;17.70;99.90;;;;;;5055192;28;20213;-73
2021/06/25 05:55:52;;;;;;;20.40;13.38;;;17.70;99.90;;;;;;5064681;28;20221;-73
2021/06/25 05:58:20;;;;;;;15.77;12.07;;;17.90;99.90;;;;;;5056415;28;20731;-73
2021/06/25 06:00:47;;;;;;;18.15;12.68;;;18.00;99.90;;;;;;5058571;28;20281;-73
2021/06/25 06:03:14;;;;;;;17.77;12.93;;;18.10;99.90;;;;;;5052289;28;20213;-73
2021/06/25 06:05:42;;;;;;;17.85;12.65;;;18.10;99.90;;;;;;5061387;28;20202;-74
2021/06/25 06:08:09;;;;;;;16.77;11.65;;;18.10;99.90;;;;;;5059572;28;20219;-73
2021/06/25 06:10:36;;;;;;;14.63;11.68;;;18.10;99.90;;;;;;5058011;28;20222;-73
2021/06/25 06:13:03;;;;;;;16.75;12.25;;;18.10;99.90;;;;;;5052720;28;20302;-74
2021/06/25 06:15:33;;;;;;;18.65;13.07;;;18.20;99.90;;;;;;5059766;28;20203;-73
2021/06/25 06:18:01;;;;;;;14.85;11.70;;;18.30;99.90;;;;;;5058956;28;20199;-73
2021/06/25 06:20:29;;;;;;;13.82;11.27;;;18.20;99.90;;;;;;5054827;28;20759;-73
2021/06/25 06:31:19;;;;;;;15.05;11.52;;;17.70;99.90;;;;;;5051489;28;20524;-73
2021/06/25 06:33:48;;;;;;;14.40;12.05;;;17.90;99.90;;;;;;5051722;28;20293;-73
2021/06/25 06:36:22;;;;;;;17.05;11.70;;;17.70;99.90;;;;;;5051519;28;21148;-73
2021/06/25 06:38:49;;;;;;;15.20;11.90;;;17.70;99.90;;;;;;5051088;28;20211;-73
2021/06/25 06:41:16;;;;;;;12.95;10.57;;;17.70;99.90;;;;;;5049771;28;20615;-73
2021/06/25 06:43:44;;;;;;;14.38;10.30;;;17.80;99.90;;;;;;5051534;28;20199;-74
2021/06/25 06:46:12;;;;;;;15.38;11.95;;;17.90;99.90;;;;;;5051201;28;20636;-73
2021/06/25 06:48:40;;;;;;;14.38;11.32;;;17.90;99.90;;;;;;5051477;28;20235;-73
2021/06/25 06:51:07;;;;;;;18.98;12.52;;;17.90;99.90;;;;;;5052744;28;20309;-73
2021/06/25 06:53:35;;;;;;;16.92;10.98;;;17.90;99.90;;;;;;5050930;28;20699;-73
2021/06/25 06:56:02;;;;;;;17.77;12.38;;;18.00;99.90;;;;;;5054882;28;20199;-73
2021/06/25 06:58:28;;;;;;;18.48;12.25;;;18.20;99.90;;;;;;5054311;28;20590;-73
2021/06/25 07:00:56;;;;;;;18.40;12.07;;;18.10;99.90;;;;;;5050258;28;20214;-73
2021/06/25 07:03:24;;;;;;;15.07;12.00;;;18.30;99.90;;;;;;5053247;28;20206;-73
2021/06/25 07:05:51;;;;;;;20.20;13.18;;;18.00;99.90;;;;;;5051450;28;20206;-73
2021/06/25 07:08:17;;;;;;;17.67;12.43;;;18.30;99.90;;;;;;5053011;28;20206;-73
2021/06/25 07:10:44;;;;;;;15.82;12.07;;;18.30;99.90;;;;;;5049821;28;20223;-73
2021/06/25 07:13:11;;;;;;;16.55;12.20;;;18.50;99.90;;;;;;5051668;28;20638;-73
2021/06/25 07:15:38;;;;;;;16.58;12.18;;;18.30;99.90;;;;;;5050592;28;20203;-73
2021/06/25 07:18:06;;;;;;;18.50;11.23;;;18.40;99.90;;;;;;5049052;28;20209;-73
2021/06/25 07:20:34;;;;;;;14.45;11.27;;;18.30;99.90;;;;;;5050024;28;20199;-73
2021/06/25 07:23:01;;;;;;;16.58;11.52;;;18.40;99.90;;;;;;5050279;28;20638;-73
2021/06/25 07:25:29;;;;;;;17.27;12.23;;;18.50;99.90;;;;;;5050219;28;20211;-73
2021/06/25 07:27:56;;;;;;;18.45;12.57;;;18.70;99.90;;;;;;5046652;28;20207;-73
2021/06/25 07:30:23;;;;;;;16.67;11.80;;;18.70;99.90;;;;;;5046172;28;20230;-73
2021/06/25 07:32:51;;;;;;;16.25;11.52;;;18.70;99.90;;;;;;5048724;28;20210;-73
2021/06/25 07:35:18;;;;;;;17.13;12.05;;;18.50;99.90;;;;;;5050286;28;20225;-72
2021/06/25 07:37:46;;;;;;;16.08;11.70;;;18.50;99.90;;;;;;5050348;28;20211;-72
2021/06/25 07:40:14;;;;;;;16.50;11.45;;;18.60;99.90;;;;;;5049801;28;20211;-73
2021/06/25 07:42:41;;;;;;;16.00;11.55;;;18.80;99.90;;;;;;5050679;28;20716;-72
2021/06/25 07:45:09;;;;;;;16.40;11.95;;;18.80;99.90;;;;;;5050306;28;20388;-73
2021/06/25 07:47:37;;;;;;;14.38;10.95;;;18.70;99.90;;;;;;5050967;28;20198;-73
2021/06/25 07:50:05;;;;;;;16.45;12.10;;;18.80;99.90;;;;;;5048900;28;20233;-73
2021/06/25 07:52:32;;;;;;;13.90;11.23;;;19.20;99.90;;;;;;5050174;28;20209;-73
2021/06/25 07:55:00;;;;;;;14.27;11.52;;;19.40;99.90;;;;;;5050124;28;20210;-73
2021/06/25 07:57:27;;;;;;;15.95;11.90;;;19.20;99.90;;;;;;5050007;28;20207;-73
2021/06/25 07:59:54;;;;;;;13.13;10.93;;;19.10;99.90;;;;;;5050703;28;20202;-73
2021/06/25 08:02:21;;;;;;;15.80;11.48;;;19.20;99.90;;;;;;5050235;28;20211;-73
2021/06/25 08:04:48;;;;;;;15.73;11.45;;;19.00;99.90;;;;;;5050010;28;20294;-74
2021/06/25 08:07:15;;;;;;;13.38;11.50;;;19.10;99.90;;;;;;5050124;28;20232;-73
2021/06/25 08:09:48;;;;;;;15.80;12.13;;;19.00;99.90;;;;;;5049182;28;20229;-73
2021/06/25 08:12:17;;;;;;;16.73;11.95;;;19.10;99.90;;;;;;5050165;28;20641;-73
2021/06/25 08:14:44;;;;;;;14.65;12.18;;;19.20;99.90;;;;;;5050621;28;20211;-73
2021/06/25 08:17:10;;;;;;;18.45;13.05;;;19.00;99.90;;;;;;5047548;28;20210;-74
2021/06/25 08:19:37;;;;;;;18.98;13.63;;;19.50;99.90;;;;;;5049349;28;20203;-75
2021/06/25 08:22:05;;;;;;;16.55;12.48;;;19.20;99.90;;;;;;5049793;28;20214;-76
2021/06/25 08:24:33;;;;;;;17.95;13.77;;;19.40;99.90;;;;;;5050157;28;20207;-76
2021/06/25 08:27:00;;;;;;;18.88;13.95;;;19.70;99.90;;;;;;5049727;28;20203;-77
2021/06/25 08:29:29;;;;;;;16.95;13.65;;;20.10;99.90;;;;;;5048324;28;20292;-76
2021/06/25 08:31:55;;;;;;;18.73;13.52;;;20.40;99.90;;;;;;5043360;28;20302;-76
2021/06/25 08:34:22;;;;;;;18.65;14.90;;;20.40;99.90;;;;;;5037069;28;20212;-77
2021/06/25 08:36:49;;;;;;;20.10;15.82;;;19.90;99.90;;;;;;5038378;28;20202;-76
2021/06/25 08:39:16;;;;;;;18.60;14.65;;;20.00;99.90;;;;;;5048235;28;20222;-76
2021/06/25 08:41:43;;;;;;;19.08;15.75;;;20.30;99.90;;;;;;5047587;28;20221;-76
2021/06/25 08:44:10;;;;;;;22.25;16.92;;;20.00;99.90;;;;;;5048178;28;20213;-76
2021/06/25 08:46:39;;;;;;;19.83;14.90;;;20.10;99.90;;;;;;5048343;28;20203;-76
2021/06/25 08:49:06;;;;;;;20.05;15.05;;;20.10;99.90;;;;;;5048118;28;20214;-77
2021/06/25 08:51:33;;;;;;;20.88;14.70;;;20.00;99.90;;;;;;5047465;28;20225;-76
2021/06/25 08:54:00;;;;;;;19.58;14.88;;;19.90;99.90;;;;;;5044681;28;20203;-76
2021/06/25 08:56:31;;;;;;;20.23;14.32;;;19.80;99.90;;;;;;5048318;28;20685;-76
2021/06/25 08:59:00;;;;;;;18.75;14.88;;;19.90;99.90;;;;;;5047882;28;20603;-76
2021/06/25 09:01:27;;;;;;;22.38;15.27;;;19.90;99.90;;;;;;5054130;28;20195;-76
2021/06/25 09:03:55;;;;;;;20.58;15.18;;;20.00;99.90;;;;;;5051422;28;20563;-76
2021/06/25 09:06:22;;;;;;;20.40;15.38;;;20.10;99.90;;;;;;5051804;28;20202;-76
2021/06/25 09:08:49;;;;;;;20.63;14.18;;;20.20;99.90;;;;;;5045990;28;20661;-76
2021/06/25 09:11:22;;;;;;;20.80;16.20;;;20.30;99.90;;;;;;5048066;28;20223;-76
2021/06/25 09:13:55;;;;;;;17.45;13.93;;;20.50;99.90;;;;;;5049265;28;20229;-76
2021/06/25 09:16:24;;;;;;;20.67;15.60;;;20.20;99.90;;;;;;5049001;28;20653;-76
2021/06/25 09:19:01;;;;;;;20.58;14.90;;;20.10;99.90;;;;;;5048858;28;20224;-76
2021/06/25 09:21:31;;;;;;;20.15;15.65;;;20.30;99.90;;;;;;5047618;28;20290;-76
2021/06/25 09:23:58;;;;;;;18.88;15.85;;;20.30;99.90;;;;;;5043393;28;20289;-76
2021/06/25 09:26:32;;;;;;;19.35;15.15;;;19.90;99.90;;;;;;5048554;28;20210;-76
2021/06/25 09:29:12;;;;;;;20.15;16.13;;;20.10;99.90;;;;;;5048228;28;20207;-76
2021/06/25 09:31:39;;;;;;;21.65;16.30;;;19.80;99.90;;;;;;5047344;28;20219;-76
2021/06/25 09:34:09;;;;;;;20.35;15.88;;;19.80;99.90;;;;;;5048666;28;20217;-76
2021/06/25 09:36:38;;;;;;;18.00;14.48;;;20.00;99.90;;;;;;5050467;28;20226;-76
2021/06/25 09:39:08;;;;;;;20.15;15.90;;;19.70;99.90;;;;;;5048043;28;20240;-76
2021/06/25 09:41:36;;;;;;;19.23;15.38;;;19.50;99.90;;;;;;5046628;28;20210;-76
2021/06/25 09:44:05;;;;;;;19.20;15.30;;;19.70;99.90;;;;;;5047757;28;20230;-76
2021/06/25 09:46:35;;;;;;;18.90;15.38;;;19.70;99.90;;;;;;5047599;28;20231;-76
2021/06/25 09:49:04;;;;;;;19.50;16.02;;;19.60;99.90;;;;;;5047805;28;20669;-77
2021/06/25 09:51:33;;;;;;;18.50;14.98;;;19.40;99.90;;;;;;5046126;28;20229;-76
2021/06/25 09:54:09;;;;;;;21.67;16.27;;;19.20;99.90;;;;;;5048134;28;20209;-76
2021/06/25 09:56:38;;;;;;;21.75;16.08;;;18.80;99.90;;;;;;5045647;28;20203;-76
2021/06/25 10:02:30;;;;;;;21.30;16.00;;;18.90;99.90;;;;;;5046049;28;20199;-76
2021/06/25 10:04:58;;;;;;;22.95;17.30;;;18.80;99.90;;;;;;5041696;28;20294;-76
2021/06/25 10:07:28;;;;;;;22.27;17.80;;;18.90;99.90;;;;;;5048500;28;20222;-76
2021/06/25 10:09:57;;;;;;;20.77;17.38;;;18.80;99.90;;;;;;5047110;28;20222;-75
2021/06/25 10:12:24;;;;;;;23.52;18.30;;;18.80;99.90;;;;;;5049117;28;20249;-76
2021/06/25 10:14:53;;;;;;;23.10;18.08;;;18.80;99.90;;;;;;5050582;28;20203;-76
2021/06/25 10:17:20;;;;;;;22.92;18.60;;;18.70;99.90;;;;;;5051384;28;20210;-76
2021/06/25 10:19:49;;;;;;;21.58;17.45;;;18.70;99.90;;;;;;5047948;28;20203;-76
2021/06/25 10:22:17;;;;;;;23.13;18.77;;;18.80;99.90;;;;;;5051637;28;20191;-76
2021/06/25 10:24:49;;;;;;;27.15;20.17;;;18.80;99.90;;;;;;5046574;28;20673;-76
2021/06/25 10:27:19;;;;;;;23.42;18.13;;;19.10;99.90;;;;;;5049724;28;20203;-76
2021/06/25 10:29:47;;;;;;;21.20;17.50;;;19.40;99.90;;;;;;5047647;28;20436;-76
2021/06/25 10:32:16;;;;;;;21.17;17.48;;;19.70;99.90;;;;;;5051043;28;20688;-76
2021/06/25 10:34:44;;;;;;;20.95;16.65;;;20.00;99.90;;;;;;5051953;28;20203;-76
2021/06/25 10:37:16;;;;;;;21.20;17.65;;;19.90;99.90;;;;;;5052169;28;20229;-75
2021/06/25 10:39:43;;;;;;;21.20;17.10;;;20.50;99.90;;;;;;5051520;28;20260;-76
2021/06/25 10:42:13;;;;;;;20.90;17.05;;;20.80;99.90;;;;;;5052201;28;20290;-76
2021/06/25 10:44:43;;;;;;;19.55;14.95;;;21.40;99.90;;;;;;5051222;28;20675;-76
2021/06/25 10:47:18;;;;;;;22.13;17.13;;;21.50;99.90;;;;;;5051794;28;20207;-76
2021/06/25 10:50:20;;;;;;;19.52;15.65;;;21.40;99.90;;;;;;5051273;28;20290;-76
2021/06/25 10:53:22;;;;;;;21.92;16.85;;;21.30;99.90;;;;;;5051844;28;20213;-76
2021/06/25 10:56:08;;;;;;;20.33;16.80;;;21.10;99.90;;;;;;5040694;28;20215;-76
2021/06/25 10:58:36;;;;;;;22.75;17.52;;;20.80;99.90;;;;;;5051960;28;20203;-76
2021/06/25 11:01:05;;;;;;;21.98;18.15;;;20.50;99.90;;;;;;5051526;28;20199;-76
2021/06/25 11:03:46;;;;;;;21.40;16.63;;;20.40;99.90;;;;;;5051529;28;20217;-75
2021/06/25 11:06:53;;;;;;;20.25;16.38;;;20.40;99.90;;;;;;5051876;28;20642;-76
2021/06/25 11:09:20;;;;;;;24.63;18.92;;;20.30;99.90;;;;;;5039354;28;20260;-75
2021/06/25 11:11:47;;;;;;;22.98;19.40;;;20.10;99.90;;;;;;5050698;28;20261;-75
2021/06/25 11:14:29;;;;;;;24.95;19.63;;;20.00;99.90;;;;;;5051543;28;20873;-75
2021/06/25 11:16:56;;;;;;;25.92;20.70;;;19.70;99.90;;;;;;5051419;28;20207;-74
2021/06/25 11:19:39;;;;;;;27.83;20.15;;;19.30;99.90;;;;;;5050668;28;20233;-74
2021/06/25 11:22:36;;;;;;;24.20;20.15;;;19.10;99.90;;;;;;5051064;28;20573;-74
2021/06/25 11:25:04;;;;;;;25.42;20.15;;;19.20;99.90;;;;;;5050328;28;20575;-74
2021/06/25 11:28:16;;;;;;;24.13;18.13;;;19.20;99.90;;;;;;5051078;28;20295;-75
2021/06/25 11:30:58;;;;;;;24.23;18.27;;;19.00;99.90;;;;;;5050210;28;20775;-75
2021/06/25 11:33:30;;;;;;;23.55;18.35;;;19.30;99.90;;;;;;5051150;28;20597;-71
2021/06/25 11:36:21;;;;;;;28.38;20.40;;;19.50;99.90;;;;;;5051132;28;20210;-71
2021/06/25 11:39:20;;;;;;;24.42;18.90;;;20.30;99.90;;;;;;5045802;28;20210;-71
2021/06/25 11:41:54;;;;;;;25.27;19.48;;;20.70;99.90;;;;;;5026227;28;20257;-71
2021/06/25 11:44:23;;;;;;;25.30;18.75;;;21.10;99.90;;;;;;5049285;28;20656;-71
2021/06/25 11:46:54;;;;;;;24.30;18.30;;;21.10;99.90;;;;;;5049595;28;20206;-71
2021/06/25 11:49:21;;;;;;;21.15;17.77;;;21.80;99.90;;;;;;5049300;28;20577;-71
2021/06/25 11:51:48;;;;;;;20.85;15.95;;;22.20;99.90;;;;;;5049058;28;20322;-71
2021/06/25 11:54:21;;;;;;;19.50;14.50;;;22.40;99.90;;;;;;5045795;28;20202;-71
2021/06/25 11:56:48;;;;;;;19.13;15.30;;;22.70;99.90;;;;;;5049075;28;20206;-71
2021/06/25 11:59:16;;;;;;;23.75;17.42;;;23.10;99.90;;;;;;5049188;28;20306;-71
2021/06/25 12:01:56;;;;;;;19.77;16.50;;;23.10;99.90;;;;;;5048599;28;20207;-71
2021/06/25 12:04:36;;;;;;;20.05;15.23;;;22.90;99.90;;;;;;5048551;28;20203;-71
2021/06/25 12:07:04;;;;;;;18.20;14.60;;;23.20;99.90;;;;;;5048610;28;20210;-71
2021/06/25 12:09:53;;;;;;;20.25;16.25;;;23.50;99.90;;;;;;5049176;28;20203;-71
2021/06/25 12:12:26;;;;;;;18.80;14.85;;;23.60;99.90;;;;;;5043619;28;20814;-71
2021/06/25 12:14:55;;;;;;;19.45;15.27;;;24.10;99.90;;;;;;5049061;28;20209;-71
2021/06/25 12:17:24;;;;;;;17.52;14.23;;;24.10;99.90;;;;;;5048909;28;20222;-71
2021/06/25 12:19:59;;;;;;;19.00;14.15;;;24.30;99.90;;;;;;5047285;28;20582;-71
2021/06/25 12:22:26;;;;;;;22.00;15.27;;;24.10;99.90;;;;;;5048792;28;20202;-71
2021/06/25 12:24:54;;;;;;;19.05;13.40;;;23.30;99.90;;;;;;5046718;28;20209;-71
2021/06/25 12:27:35;;;;;;;17.38;13.02;;;23.80;99.90;;;;;;5048223;28;20579;-71
2021/06/25 12:30:07;;;;;;;18.13;12.65;;;24.20;99.90;;;;;;5048324;28;20206;-71
2021/06/25 12:32:35;;;;;;;15.90;12.63;;;24.50;99.90;;;;;;5044104;28;20215;-71
2021/06/25 12:35:02;;;;;;;18.02;13.38;;;24.60;99.90;;;;;;5048416;28;20199;-71
2021/06/25 12:37:49;;;;;;;17.42;12.82;;;24.90;99.90;;;;;;5049531;28;20218;-72
2021/06/25 12:40:41;;;;;;;17.42;12.63;;;24.80;99.90;;;;;;5048604;28;20552;-71
2021/06/25 12:43:09;;;;;;;17.05;13.02;;;24.90;99.90;;;;;;5041379;28;20235;-72
2021/06/25 12:45:44;;;;;;;17.25;13.05;;;25.20;99.90;;;;;;5043659;28;20211;-72
2021/06/25 12:48:16;;;;;;;16.48;12.00;;;25.20;99.90;;;;;;5048915;28;20719;-72
2021/06/25 12:50:44;;;;;;;17.75;12.15;;;24.90;99.90;;;;;;5048815;28;20213;-72